Xenia, IL

2:05 AM CST on December 28, 2014 (GMT -0600)
Middleton Street Weather | Change Station
CLOSE
Current Station
Personal Weather Station
Location: Iuka, IL
Elevation: 518 ft
Nearby Weather Stations

Elev 518 ft 38.61 °N, 88.79 °W | Updated 0 second ago

Mostly Cloudy
Mostly Cloudy
32.6 °F
Feels Like 27 °F
N
5.6
Wind Variable Wind from NW
Gusts 7.6 mph

Today
High -- | Low -- °F
--% Chance of Precip.
Yesterday
High -- | Low -- °F
Precip. -- in
7:11 AM 4:40 PM
Waxing Crescent, 45% visible
Pressure 30.19 in
Visibility 10.0 miles
Clouds Clear
Windchill 27 °F
Dew Point 18 °F
Humidity 52%
Rainfall 0.00 in
Snow Depth Not available.
UV 0 out of 12
Pollen 1.60 out of 12
Air Quality Not available.
Flu Activity Not available.
METAR KFOA 280755Z AUTO 33011KT 10SM CLR 01/M01 A3019 RMK AO2 T00081015

More Conditions Fewer Conditions

Pressure 30.19 in
Visibility 10.0 miles
Clouds Clear
Windchill 27 °F
Dew Point 18 °F
Humidity 52%
Rainfall 0.00 in
Snow Depth Not available.
UV 0 out of 12
Pollen 1.60 out of 12
Air Quality Not available.
Flu Activity Not available.
METAR KFOA 280755Z AUTO 33011KT 10SM CLR 01/M01 A3019 RMK AO2 T00081015

More Conditions Fewer Conditions

10-Day Weather Forecast

Almanac

Astronomy

Dec. 28, 2014 Rise Set
Actual Time
Civil Twilight
Nautical Twilight
Astronomical Twilight
Moon
Length of Visible Light
Length of Day
Tomorrow will be .
, % of the Moon is Illuminated

Today's Extremes

State Highs State Lows

Community

WunderPhotos

Upload Photos

1,781,210 photos uploaded!

WunderBlogs® & News

Nearby

Air Quality

  Air Quality AQ Index Pollutant
Not available.

Snow Depth

Station Depth Elevation

Earthquake Activity

City Distance Mag. Time & Date
Minimum magnitude displayed is 2.5.

Coastal Water Temperatures

Place Temperature

Nearby Weather Stations